createdAt,value
2022-12-20T00:00:17.207Z,984.87
2022-12-20T00:01:17.132Z,984.91
2022-12-20T00:02:17.275Z,984.91
2022-12-20T00:03:17.229Z,984.91
2022-12-20T00:04:17.133Z,984.88
2022-12-20T00:05:17.081Z,984.87
2022-12-20T00:06:17.107Z,984.87
2022-12-20T00:07:17.062Z,984.86
2022-12-20T00:08:17.077Z,984.89
2022-12-20T00:09:17.071Z,984.90
2022-12-20T00:10:17.072Z,984.89
2022-12-20T00:11:17.031Z,984.90
2022-12-20T00:12:17.035Z,984.82
2022-12-20T00:13:17.052Z,984.84
2022-12-20T00:14:17.011Z,984.78
2022-12-20T00:15:16.968Z,984.78
2022-12-20T00:16:16.989Z,984.75
2022-12-20T00:17:16.981Z,984.64
2022-12-20T00:18:16.974Z,984.63
2022-12-20T00:19:16.929Z,984.61
2022-12-20T00:20:16.978Z,984.63
2022-12-20T00:21:16.901Z,984.64
2022-12-20T00:22:16.913Z,984.63
2022-12-20T00:23:16.909Z,984.62
2022-12-20T00:24:22.194Z,984.59
2022-12-20T00:25:18.313Z,984.57
2022-12-20T00:26:16.943Z,984.53
2022-12-20T00:27:16.837Z,984.54
2022-12-20T00:28:16.840Z,984.49
2022-12-20T00:29:16.837Z,984.48
2022-12-20T00:30:17.572Z,984.45
2022-12-20T00:31:17.666Z,984.48
2022-12-20T00:32:17.644Z,984.47
2022-12-20T00:33:17.137Z,984.51
2022-12-20T00:34:16.788Z,984.54
2022-12-20T00:35:17.590Z,984.50
2022-12-20T00:36:17.204Z,984.51
2022-12-20T00:37:16.737Z,984.44
2022-12-20T00:38:16.738Z,984.45
2022-12-20T00:39:16.720Z,984.39
2022-12-20T00:40:16.708Z,984.41
2022-12-20T00:41:16.683Z,984.45
2022-12-20T00:42:17.157Z,984.44
2022-12-20T00:43:16.670Z,984.43
2022-12-20T00:44:16.665Z,984.43
2022-12-20T00:45:16.639Z,984.48
2022-12-20T00:46:16.748Z,984.50
2022-12-20T00:47:16.708Z,984.44
2022-12-20T00:48:16.627Z,984.45
2022-12-20T00:49:16.658Z,984.46
2022-12-20T00:50:16.606Z,984.45
2022-12-20T00:51:16.851Z,984.42
2022-12-20T00:52:17.415Z,984.45
2022-12-20T00:53:22.627Z,984.44
2022-12-20T00:54:17.575Z,984.48
2022-12-20T00:55:16.525Z,984.47
2022-12-20T00:56:16.580Z,984.46
2022-12-20T00:57:16.501Z,984.40
2022-12-20T00:58:16.514Z,984.38
2022-12-20T00:59:16.466Z,984.39
2022-12-20T01:00:16.612Z,984.36
2022-12-20T01:01:16.481Z,984.37
2022-12-20T01:02:16.671Z,984.33
2022-12-20T01:03:16.849Z,984.35
2022-12-20T01:04:16.435Z,984.36
2022-12-20T01:05:16.422Z,984.34
2022-12-20T01:06:16.423Z,984.36
2022-12-20T01:07:16.410Z,984.39
2022-12-20T01:08:16.396Z,984.37
2022-12-20T01:09:16.563Z,984.40
2022-12-20T01:10:16.396Z,984.37
2022-12-20T01:11:16.363Z,984.34
2022-12-20T01:12:17.112Z,984.31
2022-12-20T01:13:17.180Z,984.28
2022-12-20T01:14:17.087Z,984.28
2022-12-20T01:15:16.294Z,984.27
2022-12-20T01:16:16.390Z,984.23
2022-12-20T01:17:16.264Z,984.26
2022-12-20T01:18:16.312Z,984.25
2022-12-20T01:19:16.541Z,984.21
2022-12-20T01:20:16.636Z,984.25
2022-12-20T01:21:16.226Z,984.23
2022-12-20T01:22:16.232Z,984.26
2022-12-20T01:23:16.224Z,984.31
2022-12-20T01:24:16.240Z,984.23
2022-12-20T01:25:16.364Z,984.24
2022-12-20T01:26:16.224Z,984.23
2022-12-20T01:27:16.159Z,984.20
2022-12-20T01:28:16.162Z,984.20
2022-12-20T01:29:16.181Z,984.19
2022-12-20T01:30:16.240Z,984.20
2022-12-20T01:31:16.185Z,984.18
2022-12-20T01:32:17.052Z,984.12
2022-12-20T01:33:16.890Z,984.11
2022-12-20T01:34:16.220Z,984.15
2022-12-20T01:35:16.079Z,984.11
2022-12-20T01:36:16.095Z,984.16
2022-12-20T01:37:16.170Z,984.25
2022-12-20T01:38:16.060Z,984.31
2022-12-20T01:39:16.036Z,984.30
2022-12-20T01:40:16.040Z,984.30
2022-12-20T01:41:16.159Z,984.25
2022-12-20T01:42:16.021Z,984.31
2022-12-20T01:43:15.970Z,984.27
2022-12-20T01:44:15.981Z,984.26
2022-12-20T01:45:15.978Z,984.20
2022-12-20T01:46:16.025Z,984.19
2022-12-20T01:47:15.939Z,984.18
2022-12-20T01:48:15.940Z,984.19
2022-12-20T01:49:15.954Z,984.17
2022-12-20T01:50:15.922Z,984.19
2022-12-20T01:51:15.891Z,984.21
2022-12-20T01:52:15.909Z,984.21
2022-12-20T01:53:16.763Z,984.17
2022-12-20T01:54:16.657Z,984.17
2022-12-20T01:55:15.868Z,984.20
2022-12-20T01:56:16.469Z,984.18
2022-12-20T01:57:16.058Z,984.15
2022-12-20T01:58:15.898Z,984.14
2022-12-20T01:59:15.788Z,984.17
2022-12-20T02:00:15.842Z,984.17
2022-12-20T02:01:15.859Z,984.14
2022-12-20T02:02:16.070Z,984.13
2022-12-20T02:03:16.632Z,984.11
2022-12-20T02:04:16.121Z,984.13
2022-12-20T02:05:15.738Z,984.14
2022-12-20T02:06:15.739Z,984.13
2022-12-20T02:07:15.725Z,984.15
2022-12-20T02:08:15.947Z,984.15
2022-12-20T02:09:15.937Z,984.10
2022-12-20T02:10:15.688Z,984.10
2022-12-20T02:11:15.696Z,984.10
2022-12-20T02:12:16.482Z,984.10
2022-12-20T02:13:16.376Z,984.04
2022-12-20T02:14:15.725Z,984.07
2022-12-20T02:15:16.441Z,984.06
2022-12-20T02:16:15.696Z,984.08
2022-12-20T02:17:15.615Z,984.09
2022-12-20T02:18:15.619Z,984.02
2022-12-20T02:19:15.575Z,984.06
2022-12-20T02:20:16.479Z,983.96
2022-12-20T02:21:15.648Z,983.99
2022-12-20T02:22:15.566Z,983.93
2022-12-20T02:23:16.456Z,983.90
2022-12-20T02:24:15.556Z,983.89
2022-12-20T02:25:15.656Z,983.93
2022-12-20T02:26:15.523Z,983.87
2022-12-20T02:27:15.476Z,983.83
2022-12-20T02:28:15.474Z,983.82
2022-12-20T02:29:15.480Z,983.81
2022-12-20T02:30:15.679Z,983.85
2022-12-20T02:31:15.705Z,983.79
2022-12-20T02:32:15.546Z,983.80
2022-12-20T02:33:15.415Z,983.79
2022-12-20T02:34:15.451Z,983.76
2022-12-20T02:35:15.406Z,983.78
2022-12-20T02:36:16.223Z,983.77
2022-12-20T02:37:15.522Z,983.84
2022-12-20T02:38:15.658Z,983.89
2022-12-20T02:39:15.636Z,983.90
2022-12-20T02:40:16.111Z,983.87
2022-12-20T02:41:15.341Z,983.89
2022-12-20T02:42:16.152Z,983.87
2022-12-20T02:43:15.504Z,983.93
2022-12-20T02:44:15.305Z,983.94
2022-12-20T02:45:16.154Z,983.99
2022-12-20T02:46:15.625Z,984.02
2022-12-20T02:47:16.184Z,984.03
2022-12-20T02:48:15.996Z,984.01
2022-12-20T02:49:15.291Z,983.98
2022-12-20T02:50:15.247Z,983.99
2022-12-20T02:51:15.191Z,983.98
2022-12-20T02:52:15.955Z,983.98
2022-12-20T02:53:15.718Z,984.01
2022-12-20T02:54:15.932Z,984.02
2022-12-20T02:55:15.933Z,984.00
2022-12-20T02:56:15.196Z,983.98
2022-12-20T02:57:15.140Z,983.98
2022-12-20T02:58:15.195Z,983.96
2022-12-20T02:59:15.145Z,983.89
2022-12-20T03:00:15.162Z,983.92
2022-12-20T03:01:15.125Z,983.88
2022-12-20T03:02:15.311Z,983.88
2022-12-20T03:03:15.249Z,983.90
2022-12-20T03:04:15.191Z,983.81
2022-12-20T03:05:15.189Z,983.80
2022-12-20T03:06:15.894Z,983.77
2022-12-20T03:07:15.228Z,983.81
2022-12-20T03:08:15.051Z,983.80
2022-12-20T03:09:15.010Z,983.77
2022-12-20T03:10:15.013Z,983.76
2022-12-20T03:11:15.135Z,983.79
2022-12-20T03:12:15.139Z,983.82
2022-12-20T03:13:15.153Z,983.89
2022-12-20T03:14:15.179Z,983.90
2022-12-20T03:15:15.698Z,983.88
2022-12-20T03:16:15.042Z,983.90
2022-12-20T03:17:15.989Z,983.90
2022-12-20T03:18:15.012Z,983.89
2022-12-20T03:19:14.882Z,983.90
2022-12-20T03:20:14.905Z,983.99
2022-12-20T03:21:14.867Z,983.98
2022-12-20T03:22:15.646Z,983.95
2022-12-20T03:23:14.901Z,983.95
2022-12-20T03:24:14.858Z,983.96
2022-12-20T03:25:14.837Z,983.96
2022-12-20T03:26:14.828Z,983.99
2022-12-20T03:27:14.799Z,983.94
2022-12-20T03:28:14.815Z,983.92
2022-12-20T03:29:14.837Z,983.96
2022-12-20T03:30:14.781Z,983.87
2022-12-20T03:31:14.902Z,983.87
2022-12-20T03:32:15.101Z,983.82
2022-12-20T03:33:15.612Z,983.83
2022-12-20T03:34:15.518Z,983.80
2022-12-20T03:35:15.664Z,983.79
2022-12-20T03:36:15.478Z,983.82
2022-12-20T03:37:15.476Z,983.81
2022-12-20T03:38:14.877Z,983.78
2022-12-20T03:39:15.540Z,983.78
2022-12-20T03:40:14.662Z,983.74
2022-12-20T03:41:14.665Z,983.75
2022-12-20T03:42:15.124Z,983.75
2022-12-20T03:43:15.045Z,983.74
2022-12-20T03:44:15.679Z,983.78
2022-12-20T03:45:14.624Z,983.77
2022-12-20T03:46:14.613Z,983.73
2022-12-20T03:47:14.600Z,983.62
2022-12-20T03:48:14.690Z,983.60
2022-12-20T03:49:14.650Z,983.58
2022-12-20T03:50:15.515Z,983.59
2022-12-20T03:51:15.418Z,983.56
2022-12-20T03:52:14.554Z,983.56
2022-12-20T03:53:14.606Z,983.63
2022-12-20T03:54:14.488Z,983.60
2022-12-20T03:55:14.540Z,983.59
2022-12-20T03:56:15.187Z,983.57
2022-12-20T03:57:15.365Z,983.52
2022-12-20T03:58:14.867Z,983.52
2022-12-20T03:59:14.463Z,983.52
2022-12-20T04:00:15.314Z,983.60
2022-12-20T04:01:15.284Z,983.53
2022-12-20T04:02:14.675Z,983.48
2022-12-20T04:03:14.480Z,983.50
2022-12-20T04:04:14.390Z,983.52
2022-12-20T04:05:14.503Z,983.47
2022-12-20T04:06:15.263Z,983.47
2022-12-20T04:07:14.497Z,983.48
2022-12-20T04:08:14.359Z,983.50
2022-12-20T04:09:14.442Z,983.54
2022-12-20T04:10:14.350Z,983.53
2022-12-20T04:11:14.331Z,983.51
2022-12-20T04:12:15.186Z,983.51
2022-12-20T04:13:14.319Z,983.49
2022-12-20T04:14:14.262Z,983.44
2022-12-20T04:15:14.272Z,983.41
2022-12-20T04:16:15.029Z,983.43
2022-12-20T04:17:14.322Z,983.42
2022-12-20T04:18:14.466Z,983.41
2022-12-20T04:19:14.212Z,983.48
2022-12-20T04:20:14.270Z,983.51
2022-12-20T04:21:14.221Z,983.55
2022-12-20T04:22:14.187Z,983.55
2022-12-20T04:23:14.912Z,983.54
2022-12-20T04:24:14.295Z,983.50
2022-12-20T04:25:14.328Z,983.62
2022-12-20T04:26:14.169Z,983.60
2022-12-20T04:27:14.158Z,983.58
2022-12-20T04:28:14.142Z,983.52
2022-12-20T04:29:14.233Z,983.49
2022-12-20T04:30:14.060Z,983.50
2022-12-20T04:31:17.311Z,983.57
2022-12-20T04:32:15.840Z,983.54
2022-12-20T04:33:14.082Z,983.47
2022-12-20T04:34:14.464Z,983.44
2022-12-20T04:35:14.064Z,983.42
2022-12-20T04:36:14.932Z,983.44
2022-12-20T04:37:14.083Z,983.44
2022-12-20T04:38:13.990Z,983.42
2022-12-20T04:39:20.806Z,983.44
2022-12-20T04:40:13.970Z,983.43
2022-12-20T04:41:13.970Z,983.47
2022-12-20T04:42:13.936Z,983.53
2022-12-20T04:43:13.984Z,983.43
2022-12-20T04:44:13.906Z,983.46
2022-12-20T04:45:13.945Z,983.45
2022-12-20T04:46:13.926Z,983.45
2022-12-20T04:47:13.985Z,983.47
2022-12-20T04:48:45.951Z,983.50
2022-12-20T04:49:15.031Z,983.41
2022-12-20T04:50:13.953Z,983.38
2022-12-20T04:51:13.879Z,983.33
2022-12-20T04:52:13.822Z,983.26
2022-12-20T04:53:13.841Z,983.27
2022-12-20T04:54:13.801Z,983.27
2022-12-20T04:55:13.807Z,983.20
2022-12-20T04:56:13.992Z,983.24
2022-12-20T04:57:14.708Z,983.19
2022-12-20T04:58:13.771Z,983.19
2022-12-20T04:59:13.808Z,983.16
2022-12-20T05:00:13.750Z,983.13
2022-12-20T05:01:13.756Z,983.14
2022-12-20T05:02:13.785Z,983.13
2022-12-20T05:03:13.831Z,983.21
2022-12-20T05:04:13.727Z,983.22
2022-12-20T05:05:13.712Z,983.18
2022-12-20T05:06:13.691Z,983.17
2022-12-20T05:07:13.678Z,983.19
2022-12-20T05:08:13.675Z,983.20
2022-12-20T05:09:13.680Z,983.22
2022-12-20T05:10:13.633Z,983.28
2022-12-20T05:11:13.631Z,983.24
2022-12-20T05:12:13.755Z,983.23
2022-12-20T05:13:13.654Z,983.20
2022-12-20T05:14:13.568Z,983.17
2022-12-20T05:15:13.610Z,983.14
2022-12-20T05:16:13.711Z,983.13
2022-12-20T05:17:13.603Z,983.12
2022-12-20T05:18:13.944Z,983.07
2022-12-20T05:19:14.389Z,983.07
2022-12-20T05:20:13.549Z,983.08
2022-12-20T05:21:13.516Z,983.04
2022-12-20T05:22:13.478Z,982.98
2022-12-20T05:23:13.531Z,983.02
2022-12-20T05:24:13.473Z,983.06
2022-12-20T05:25:13.471Z,983.10
2022-12-20T05:26:13.487Z,983.06
2022-12-20T05:27:13.474Z,983.07
2022-12-20T05:28:13.429Z,983.10
2022-12-20T05:29:13.478Z,983.10
2022-12-20T05:30:13.708Z,983.09
2022-12-20T05:31:13.434Z,983.02
2022-12-20T05:32:13.447Z,983.02
2022-12-20T05:33:13.436Z,983.00
2022-12-20T05:34:13.347Z,982.99
2022-12-20T05:35:13.382Z,983.02
2022-12-20T05:36:13.363Z,982.99
2022-12-20T05:37:13.343Z,982.95
2022-12-20T05:38:14.107Z,982.94
2022-12-20T05:39:13.350Z,982.90
2022-12-20T05:40:13.304Z,982.89
2022-12-20T05:41:13.287Z,982.86
2022-12-20T05:42:13.264Z,982.85
2022-12-20T05:43:13.269Z,982.87
2022-12-20T05:44:13.296Z,982.90
2022-12-20T05:45:13.247Z,982.90
2022-12-20T05:46:13.298Z,982.85
2022-12-20T05:47:13.398Z,982.89
2022-12-20T05:48:13.229Z,982.90
2022-12-20T05:49:13.207Z,982.86
2022-12-20T05:50:18.613Z,982.90
2022-12-20T05:51:14.405Z,982.90
2022-12-20T05:52:13.166Z,982.84
2022-12-20T05:53:13.182Z,982.82
2022-12-20T05:54:13.156Z,982.83
2022-12-20T05:55:13.127Z,982.86
2022-12-20T05:56:13.138Z,982.80
2022-12-20T05:57:13.119Z,982.80
2022-12-20T05:58:13.122Z,982.84
2022-12-20T05:59:13.204Z,982.83
2022-12-20T06:00:13.052Z,982.89
2022-12-20T06:01:13.056Z,982.87
2022-12-20T06:02:13.227Z,982.86
2022-12-20T06:03:13.180Z,982.86
2022-12-20T06:04:13.050Z,982.82
2022-12-20T06:05:13.068Z,982.88
2022-12-20T06:06:14.971Z,982.86
2022-12-20T06:07:13.253Z,982.85
2022-12-20T06:08:13.683Z,982.83
2022-12-20T06:09:13.121Z,982.87
2022-12-20T06:10:12.963Z,982.86
2022-12-20T06:11:12.988Z,982.83
2022-12-20T06:12:12.925Z,982.82
2022-12-20T06:13:13.854Z,982.78
2022-12-20T06:14:12.922Z,982.77
2022-12-20T06:15:13.622Z,982.79
2022-12-20T06:16:13.798Z,982.75
2022-12-20T06:17:13.691Z,982.79
2022-12-20T06:18:13.590Z,982.84
2022-12-20T06:19:20.915Z,982.88
2022-12-20T06:20:14.612Z,982.87
2022-12-20T06:21:12.871Z,982.86
2022-12-20T06:22:12.979Z,982.87
2022-12-20T06:23:12.978Z,982.81
2022-12-20T06:24:12.776Z,982.82
2022-12-20T06:25:12.806Z,982.84
2022-12-20T06:26:12.753Z,982.87
2022-12-20T06:27:12.779Z,982.86
2022-12-20T06:28:12.785Z,982.88
2022-12-20T06:29:12.738Z,982.90
2022-12-20T06:30:12.717Z,982.88
2022-12-20T06:31:12.831Z,982.91
2022-12-20T06:32:12.680Z,982.91
2022-12-20T06:33:12.682Z,982.88
2022-12-20T06:34:12.676Z,982.92
2022-12-20T06:35:12.666Z,982.96
2022-12-20T06:36:12.632Z,982.94
2022-12-20T06:37:12.714Z,982.94
2022-12-20T06:38:12.612Z,982.89
2022-12-20T06:39:12.815Z,982.90
2022-12-20T06:40:12.629Z,982.89
2022-12-20T06:41:12.599Z,982.90
2022-12-20T06:42:12.570Z,982.85
2022-12-20T06:43:12.592Z,982.81
2022-12-20T06:44:12.564Z,982.84
2022-12-20T06:45:12.560Z,982.83
2022-12-20T06:46:12.574Z,982.83
2022-12-20T06:47:12.576Z,982.84
2022-12-20T06:48:12.506Z,982.78
2022-12-20T06:49:12.528Z,982.82
2022-12-20T06:50:12.490Z,982.80
2022-12-20T06:51:12.489Z,982.80
2022-12-20T06:52:12.451Z,982.77
2022-12-20T06:53:12.483Z,982.75
2022-12-20T06:54:12.467Z,982.77
2022-12-20T06:55:12.442Z,982.74
2022-12-20T06:56:12.425Z,982.71
2022-12-20T06:57:12.433Z,982.66
2022-12-20T06:58:12.408Z,982.68
2022-12-20T06:59:12.478Z,982.69
2022-12-20T07:00:12.417Z,982.65
2022-12-20T07:01:12.431Z,982.72
2022-12-20T07:02:12.575Z,982.72
2022-12-20T07:03:12.515Z,982.77
2022-12-20T07:04:12.317Z,982.76
2022-12-20T07:05:12.321Z,982.69
2022-12-20T07:06:12.290Z,982.71
2022-12-20T07:07:12.316Z,982.71
2022-12-20T07:08:12.277Z,982.79
2022-12-20T07:09:12.275Z,982.72
2022-12-20T07:10:12.296Z,982.72
2022-12-20T07:11:12.275Z,982.70
2022-12-20T07:12:12.240Z,982.66
2022-12-20T07:13:12.235Z,982.65
2022-12-20T07:14:12.218Z,982.61
2022-12-20T07:15:12.220Z,982.62
2022-12-20T07:16:12.192Z,982.55
2022-12-20T07:17:13.093Z,982.54
2022-12-20T07:18:12.158Z,982.52
2022-12-20T07:19:12.167Z,982.49
2022-12-20T07:21:13.180Z,982.50
2022-12-20T07:22:12.124Z,982.55
2022-12-20T07:23:12.116Z,982.56
2022-12-20T07:24:12.119Z,982.49
2022-12-20T07:25:12.109Z,982.50
2022-12-20T07:26:12.067Z,982.50
2022-12-20T07:27:12.111Z,982.52
2022-12-20T07:28:12.067Z,982.46
2022-12-20T07:29:15.696Z,982.50
2022-12-20T07:30:12.028Z,982.44
2022-12-20T07:31:12.028Z,982.40
2022-12-20T07:32:12.341Z,982.40
2022-12-20T07:33:12.012Z,982.41
2022-12-20T07:34:11.962Z,982.39
2022-12-20T07:35:12.020Z,982.45
2022-12-20T07:36:12.696Z,982.49
2022-12-20T07:37:11.988Z,982.49
2022-12-20T07:38:11.930Z,982.47
2022-12-20T07:39:12.023Z,982.51
2022-12-20T07:40:11.930Z,982.47
2022-12-20T07:41:12.799Z,982.50
2022-12-20T07:42:11.942Z,982.42
2022-12-20T07:43:11.895Z,982.33
2022-12-20T07:44:11.953Z,982.36
2022-12-20T07:45:11.867Z,982.33
2022-12-20T07:46:11.993Z,982.31
2022-12-20T07:47:11.852Z,982.32
2022-12-20T07:48:16.326Z,982.28
2022-12-20T07:49:12.813Z,982.29
2022-12-20T07:50:11.867Z,982.34
2022-12-20T07:51:11.791Z,982.34
2022-12-20T07:52:11.810Z,982.34
2022-12-20T07:53:11.778Z,982.33
2022-12-20T07:54:11.808Z,982.30
2022-12-20T07:55:11.746Z,982.36
2022-12-20T07:56:11.787Z,982.35
2022-12-20T07:57:11.957Z,982.28
2022-12-20T07:58:11.754Z,982.21
2022-12-20T07:59:11.826Z,982.22
2022-12-20T08:00:11.694Z,982.21
2022-12-20T08:01:11.755Z,982.21
2022-12-20T08:02:11.934Z,982.23
2022-12-20T08:03:11.787Z,982.18
2022-12-20T08:04:11.728Z,982.17
2022-12-20T08:05:11.663Z,982.18
2022-12-20T08:06:11.652Z,982.20
2022-12-20T08:07:11.606Z,982.19
2022-12-20T08:08:11.674Z,982.17
2022-12-20T08:09:12.304Z,982.11
2022-12-20T08:10:11.581Z,982.12
2022-12-20T08:11:11.566Z,982.06
2022-12-20T08:12:11.847Z,982.09
2022-12-20T08:13:11.534Z,982.10
2022-12-20T08:14:11.553Z,982.04
2022-12-20T08:15:11.655Z,982.00
2022-12-20T08:16:11.519Z,982.02
2022-12-20T08:17:11.505Z,981.95
2022-12-20T08:18:11.507Z,981.99
2022-12-20T08:19:11.493Z,981.97
2022-12-20T08:20:11.504Z,982.11
2022-12-20T08:21:11.440Z,982.12
2022-12-20T08:22:12.223Z,982.08
2022-12-20T08:23:11.443Z,982.11
2022-12-20T08:24:11.447Z,982.12
2022-12-20T08:25:11.719Z,982.14
2022-12-20T08:26:11.658Z,982.15
2022-12-20T08:27:11.375Z,982.14
2022-12-20T08:28:11.397Z,982.19
2022-12-20T08:29:11.951Z,982.22
2022-12-20T08:30:11.396Z,982.15
2022-12-20T08:31:11.795Z,982.16
2022-12-20T08:32:11.330Z,982.22
2022-12-20T08:33:11.324Z,982.24
2022-12-20T08:34:11.389Z,982.31
2022-12-20T08:35:11.291Z,982.27
2022-12-20T08:36:11.723Z,982.28
2022-12-20T08:37:14.945Z,982.30
2022-12-20T08:38:11.277Z,982.28
2022-12-20T08:39:11.247Z,982.29
2022-12-20T08:40:12.006Z,982.33
2022-12-20T08:41:12.065Z,982.29
2022-12-20T08:42:11.247Z,982.29
2022-12-20T08:43:11.971Z,982.23
2022-12-20T08:44:11.254Z,982.19
2022-12-20T08:45:11.207Z,982.22
2022-12-20T08:46:11.269Z,982.18
2022-12-20T08:47:11.171Z,982.23
2022-12-20T08:48:11.698Z,982.18
2022-12-20T08:49:11.145Z,982.21
2022-12-20T08:50:11.152Z,982.16
2022-12-20T08:51:11.252Z,982.15
2022-12-20T08:52:11.169Z,982.13
2022-12-20T08:53:12.028Z,982.11
2022-12-20T08:54:11.133Z,982.09
2022-12-20T08:55:13.162Z,982.05
2022-12-20T08:56:11.057Z,982.05
2022-12-20T08:57:11.059Z,982.06
2022-12-20T08:58:11.841Z,982.11
2022-12-20T08:59:11.237Z,982.08
2022-12-20T09:00:11.015Z,982.10
2022-12-20T09:01:11.021Z,982.11
2022-12-20T09:02:11.177Z,982.15
2022-12-20T09:03:12.106Z,982.11
2022-12-20T09:04:11.741Z,982.15
2022-12-20T09:05:10.940Z,982.17
2022-12-20T09:06:11.344Z,982.16
2022-12-20T09:07:10.914Z,982.20
2022-12-20T09:08:10.956Z,982.15
2022-12-20T09:09:12.201Z,982.16
2022-12-20T09:10:11.238Z,982.18
2022-12-20T09:11:11.206Z,982.14
2022-12-20T09:12:11.164Z,982.13
2022-12-20T09:13:10.855Z,982.15
2022-12-20T09:14:10.874Z,982.14
2022-12-20T09:15:10.844Z,982.10
2022-12-20T09:16:10.932Z,982.10
2022-12-20T09:17:10.811Z,982.11
2022-12-20T09:18:10.857Z,982.12
2022-12-20T09:19:10.801Z,982.14
2022-12-20T09:20:11.770Z,982.15
2022-12-20T09:21:11.198Z,982.16
2022-12-20T09:22:11.242Z,982.17
2022-12-20T09:23:10.803Z,982.14
2022-12-20T09:24:11.628Z,982.13
2022-12-20T09:25:10.724Z,982.15
2022-12-20T09:26:11.675Z,982.11
2022-12-20T09:27:10.732Z,982.06
2022-12-20T09:28:11.256Z,982.01
2022-12-20T09:29:10.823Z,982.04
2022-12-20T09:30:11.129Z,982.04
2022-12-20T09:31:10.725Z,982.01
2022-12-20T09:32:10.702Z,982.01
2022-12-20T09:33:10.837Z,982.08
2022-12-20T09:34:10.724Z,982.04
2022-12-20T09:35:10.593Z,982.11
2022-12-20T09:36:11.396Z,982.14
2022-12-20T09:37:11.383Z,982.13
2022-12-20T09:38:11.548Z,982.15
2022-12-20T09:39:11.108Z,982.15
2022-12-20T09:40:10.596Z,982.15
2022-12-20T09:41:10.541Z,982.16
2022-12-20T09:42:10.612Z,982.14
2022-12-20T09:43:11.319Z,982.13
2022-12-20T09:44:10.579Z,982.12
2022-12-20T09:45:10.542Z,982.16
2022-12-20T09:46:10.596Z,982.15
2022-12-20T09:47:11.336Z,982.14
2022-12-20T09:48:10.529Z,982.17
2022-12-20T09:49:10.650Z,982.21
2022-12-20T09:50:10.477Z,982.17
2022-12-20T09:51:10.500Z,982.18
2022-12-20T09:52:11.223Z,982.13
2022-12-20T09:53:14.914Z,982.10
2022-12-20T09:54:11.411Z,982.10
2022-12-20T09:55:10.379Z,982.14
2022-12-20T09:56:10.410Z,982.13
2022-12-20T09:57:11.155Z,982.11
2022-12-20T09:58:10.382Z,982.11
2022-12-20T09:59:10.329Z,982.10
2022-12-20T10:00:10.359Z,982.09
2022-12-20T10:01:14.603Z,981.98
2022-12-20T10:02:35.538Z,982.03
2022-12-20T10:03:11.554Z,982.03
2022-12-20T10:04:11.243Z,982.03
2022-12-20T10:05:11.106Z,981.98
2022-12-20T10:06:10.537Z,982.02
2022-12-20T10:07:10.959Z,982.03
2022-12-20T10:08:10.248Z,982.00
2022-12-20T10:09:10.229Z,982.05
2022-12-20T10:10:10.297Z,982.08
2022-12-20T10:11:11.212Z,982.05
2022-12-20T10:12:10.247Z,982.02
2022-12-20T10:13:10.199Z,981.96
2022-12-20T10:14:10.260Z,981.93
2022-12-20T10:15:10.164Z,981.93
2022-12-20T10:16:10.336Z,981.91
2022-12-20T10:17:10.685Z,981.81
2022-12-20T10:18:10.145Z,981.83
2022-12-20T10:19:10.129Z,981.91
2022-12-20T10:20:10.138Z,981.87
2022-12-20T10:21:10.130Z,981.85
2022-12-20T10:22:10.223Z,981.81
2022-12-20T10:23:10.111Z,981.80
2022-12-20T10:24:10.091Z,981.82
2022-12-20T10:25:10.115Z,981.85
2022-12-20T10:26:10.188Z,981.86
2022-12-20T10:27:10.068Z,981.86
2022-12-20T10:28:10.414Z,981.81
2022-12-20T10:29:10.027Z,981.80
2022-12-20T10:30:10.008Z,981.72
2022-12-20T10:31:09.999Z,981.72
2022-12-20T10:32:09.989Z,981.68
2022-12-20T10:33:10.027Z,981.77
2022-12-20T10:34:09.980Z,981.70
2022-12-20T10:35:09.981Z,981.73
2022-12-20T10:36:10.012Z,981.69
2022-12-20T10:37:09.946Z,981.67
2022-12-20T10:38:10.155Z,981.70
2022-12-20T10:39:10.247Z,981.68
2022-12-20T10:40:09.912Z,981.63
2022-12-20T10:41:21.222Z,981.59
2022-12-20T10:42:10.878Z,981.50
2022-12-20T10:43:09.846Z,981.55
2022-12-20T10:44:10.597Z,981.60
2022-12-20T10:45:17.441Z,981.62
2022-12-20T10:46:09.865Z,981.62
2022-12-20T10:47:10.057Z,981.62
2022-12-20T10:48:09.819Z,981.62
2022-12-20T10:49:10.016Z,981.58
2022-12-20T10:50:09.779Z,981.50
2022-12-20T10:51:15.496Z,981.56
2022-12-20T10:52:10.783Z,981.57
2022-12-20T10:53:09.817Z,981.60
2022-12-20T10:54:09.951Z,981.59
2022-12-20T10:55:09.944Z,981.55
2022-12-20T10:56:10.051Z,981.53
2022-12-20T10:57:14.530Z,981.50
2022-12-20T10:58:10.715Z,981.57
2022-12-20T10:59:09.760Z,981.51
2022-12-20T11:00:09.770Z,981.50
2022-12-20T11:01:09.818Z,981.49
2022-12-20T11:02:09.928Z,981.43
2022-12-20T11:03:10.146Z,981.43
2022-12-20T11:04:10.103Z,981.40
2022-12-20T11:05:10.010Z,981.36
2022-12-20T11:06:09.917Z,981.34
2022-12-20T11:07:09.826Z,981.35
2022-12-20T11:08:37.763Z,981.26
2022-12-20T11:09:10.559Z,981.24
2022-12-20T11:10:09.563Z,981.21
2022-12-20T11:11:09.523Z,981.20
2022-12-20T11:12:09.551Z,981.20
2022-12-20T11:13:09.491Z,981.18
2022-12-20T11:14:09.530Z,981.15
2022-12-20T11:15:09.471Z,981.10
2022-12-20T11:16:09.680Z,981.11
2022-12-20T11:17:09.582Z,981.03
2022-12-20T11:18:09.450Z,981.04
2022-12-20T11:19:09.691Z,981.07
2022-12-20T11:20:09.431Z,981.08
2022-12-20T11:21:16.034Z,981.10
2022-12-20T11:22:10.418Z,981.02
2022-12-20T11:23:09.575Z,981.03
2022-12-20T11:24:09.394Z,981.06
2022-12-20T11:25:09.417Z,981.10
2022-12-20T11:26:09.465Z,980.99
2022-12-20T11:27:15.303Z,980.98
2022-12-20T11:28:10.374Z,980.96
2022-12-20T11:29:09.317Z,980.90
2022-12-20T11:30:09.468Z,980.90
2022-12-20T11:31:09.612Z,980.85
2022-12-20T11:32:09.317Z,980.84
2022-12-20T11:33:09.294Z,980.79
2022-12-20T11:34:09.289Z,980.80
2022-12-20T11:35:09.240Z,980.91
2022-12-20T11:36:09.247Z,980.91
2022-12-20T11:37:09.244Z,980.91
2022-12-20T11:38:10.123Z,980.92
2022-12-20T11:39:09.194Z,980.87
2022-12-20T11:40:09.236Z,980.82
2022-12-20T11:41:09.304Z,980.76
2022-12-20T11:42:09.246Z,980.79
2022-12-20T11:43:09.250Z,980.78
2022-12-20T11:44:25.468Z,980.74
2022-12-20T11:45:10.381Z,980.69
2022-12-20T11:46:09.252Z,980.70
2022-12-20T11:47:09.213Z,980.73
2022-12-20T11:48:09.184Z,980.70
2022-12-20T11:49:09.088Z,980.70
2022-12-20T11:50:09.103Z,980.69
2022-12-20T11:51:13.542Z,980.72
2022-12-20T11:52:10.165Z,980.63
2022-12-20T11:53:09.047Z,980.69
2022-12-20T11:54:09.043Z,980.67
2022-12-20T11:55:09.257Z,980.65
2022-12-20T11:56:09.054Z,980.68
2022-12-20T11:57:09.238Z,980.67
2022-12-20T11:58:18.468Z,980.68
2022-12-20T11:59:09.992Z,980.74
2022-12-20T12:00:08.972Z,980.71
2022-12-20T12:01:08.973Z,980.69
2022-12-20T12:02:09.087Z,980.61
2022-12-20T12:03:09.023Z,980.57
2022-12-20T12:04:08.895Z,980.59
2022-12-20T12:05:08.970Z,980.54
2022-12-20T12:06:08.996Z,980.54
2022-12-20T12:07:09.033Z,980.52
2022-12-20T12:08:13.523Z,980.45
2022-12-20T12:09:09.898Z,980.46
2022-12-20T12:10:08.859Z,980.47
2022-12-20T12:11:25.503Z,980.46
2022-12-20T12:12:10.081Z,980.45
2022-12-20T12:13:08.823Z,980.40
2022-12-20T12:14:08.797Z,980.38
2022-12-20T12:15:14.339Z,980.37
2022-12-20T12:16:09.922Z,980.30
2022-12-20T12:17:08.809Z,980.26
2022-12-20T12:18:08.753Z,980.28
2022-12-20T12:19:08.752Z,980.29
2022-12-20T12:20:08.745Z,980.34
2022-12-20T12:21:09.999Z,980.35
2022-12-20T12:22:08.714Z,980.34
2022-12-20T12:23:08.733Z,980.33
2022-12-20T12:24:08.725Z,980.33
2022-12-20T12:25:08.710Z,980.28
2022-12-20T12:26:08.697Z,980.28
2022-12-20T12:27:14.450Z,980.25
2022-12-20T12:28:09.676Z,980.25
2022-12-20T12:29:08.695Z,980.24